sensor_id;sensor_type;location;lat;lon;timestamp;temperature;humidity
78315;SHT31;68596;52.080;4.662;2023-04-09T00:00:26;11.59;70.96
78315;SHT31;68596;52.080;4.662;2023-04-09T00:03:10;11.58;71.31
78315;SHT31;68596;52.080;4.662;2023-04-09T00:05:55;11.50;71.35
78315;SHT31;68596;52.080;4.662;2023-04-09T00:08:39;11.45;71.30
78315;SHT31;68596;52.080;4.662;2023-04-09T00:11:24;11.45;71.39
78315;SHT31;68596;52.080;4.662;2023-04-09T00:14:08;11.38;71.67
78315;SHT31;68596;52.080;4.662;2023-04-09T00:16:53;11.34;71.92
78315;SHT31;68596;52.080;4.662;2023-04-09T00:19:37;11.27;71.90
78315;SHT31;68596;52.080;4.662;2023-04-09T00:22:21;11.30;71.77
78315;SHT31;68596;52.080;4.662;2023-04-09T00:25:06;11.34;71.90
78315;SHT31;68596;52.080;4.662;2023-04-09T00:27:51;11.30;71.78
78315;SHT31;68596;52.080;4.662;2023-04-09T00:30:35;11.25;71.91
78315;SHT31;68596;52.080;4.662;2023-04-09T00:33:19;11.28;71.68
78315;SHT31;68596;52.080;4.662;2023-04-09T00:36:04;11.30;71.69
78315;SHT31;68596;52.080;4.662;2023-04-09T00:38:49;11.24;72.03
78315;SHT31;68596;52.080;4.662;2023-04-09T00:41:33;11.20;72.35
78315;SHT31;68596;52.080;4.662;2023-04-09T00:44:17;11.18;72.02
78315;SHT31;68596;52.080;4.662;2023-04-09T00:47:01;11.23;71.78
78315;SHT31;68596;52.080;4.662;2023-04-09T00:49:46;11.24;71.75
78315;SHT31;68596;52.080;4.662;2023-04-09T00:52:31;11.27;71.51
78315;SHT31;68596;52.080;4.662;2023-04-09T00:55:17;11.28;71.31
78315;SHT31;68596;52.080;4.662;2023-04-09T00:58:02;11.31;71.07
78315;SHT31;68596;52.080;4.662;2023-04-09T01:00:46;11.28;70.99
78315;SHT31;68596;52.080;4.662;2023-04-09T01:03:30;11.30;71.00
78315;SHT31;68596;52.080;4.662;2023-04-09T01:06:26;11.28;71.02
78315;SHT31;68596;52.080;4.662;2023-04-09T01:09:23;11.27;71.05
78315;SHT31;68596;52.080;4.662;2023-04-09T01:15:14;11.25;70.92
78315;SHT31;68596;52.080;4.662;2023-04-09T01:18:09;11.28;70.85
78315;SHT31;68596;52.080;4.662;2023-04-09T01:21:05;11.30;70.71
78315;SHT31;68596;52.080;4.662;2023-04-09T01:27:52;11.25;70.74
78315;SHT31;68596;52.080;4.662;2023-04-09T01:30:40;11.24;70.88
78315;SHT31;68596;52.080;4.662;2023-04-09T01:33:30;11.21;71.16
78315;SHT31;68596;52.080;4.662;2023-04-09T01:36:16;11.18;71.35
78315;SHT31;68596;52.080;4.662;2023-04-09T01:39:02;11.15;71.69
78315;SHT31;68596;52.080;4.662;2023-04-09T01:41:48;11.14;71.72
78315;SHT31;68596;52.080;4.662;2023-04-09T01:44:33;11.10;71.77
78315;SHT31;68596;52.080;4.662;2023-04-09T01:47:18;11.08;71.93
78315;SHT31;68596;52.080;4.662;2023-04-09T01:50:04;11.07;71.86
78315;SHT31;68596;52.080;4.662;2023-04-09T01:52:49;11.06;71.71
78315;SHT31;68596;52.080;4.662;2023-04-09T01:55:34;11.00;72.11
78315;SHT31;68596;52.080;4.662;2023-04-09T01:58:19;11.00;72.56
78315;SHT31;68596;52.080;4.662;2023-04-09T02:01:15;10.97;72.47
78315;SHT31;68596;52.080;4.662;2023-04-09T02:04:09;10.92;72.84
78315;SHT31;68596;52.080;4.662;2023-04-09T02:07:04;10.93;72.79
78315;SHT31;68596;52.080;4.662;2023-04-09T02:09:52;10.93;73.14
78315;SHT31;68596;52.080;4.662;2023-04-09T02:12:39;10.94;73.08
78315;SHT31;68596;52.080;4.662;2023-04-09T02:15:27;10.97;73.01
78315;SHT31;68596;52.080;4.662;2023-04-09T02:18:24;10.97;73.09
78315;SHT31;68596;52.080;4.662;2023-04-09T02:21:08;10.97;73.40
78315;SHT31;68596;52.080;4.662;2023-04-09T02:23:54;10.99;73.16
78315;SHT31;68596;52.080;4.662;2023-04-09T02:26:38;11.00;73.54
78315;SHT31;68596;52.080;4.662;2023-04-09T02:29:23;11.03;73.16
78315;SHT31;68596;52.080;4.662;2023-04-09T02:32:07;11.07;72.80
78315;SHT31;68596;52.080;4.662;2023-04-09T02:34:52;11.11;72.60
78315;SHT31;68596;52.080;4.662;2023-04-09T02:37:36;11.15;72.68
78315;SHT31;68596;52.080;4.662;2023-04-09T02:40:23;11.18;72.73
78315;SHT31;68596;52.080;4.662;2023-04-09T02:43:08;11.24;72.84
78315;SHT31;68596;52.080;4.662;2023-04-09T02:45:52;11.28;73.00
78315;SHT31;68596;52.080;4.662;2023-04-09T02:48:36;11.35;73.14
78315;SHT31;68596;52.080;4.662;2023-04-09T02:51:20;11.38;72.80
78315;SHT31;68596;52.080;4.662;2023-04-09T02:54:05;11.41;73.18
78315;SHT31;68596;52.080;4.662;2023-04-09T02:56:49;11.48;73.03
78315;SHT31;68596;52.080;4.662;2023-04-09T02:59:33;11.51;72.93
78315;SHT31;68596;52.080;4.662;2023-04-09T03:02:19;11.57;72.93
78315;SHT31;68596;52.080;4.662;2023-04-09T03:05:03;11.59;72.88
78315;SHT31;68596;52.080;4.662;2023-04-09T03:07:47;11.59;72.76
78315;SHT31;68596;52.080;4.662;2023-04-09T03:10:32;11.64;72.66
78315;SHT31;68596;52.080;4.662;2023-04-09T03:13:16;11.65;72.24
78315;SHT31;68596;52.080;4.662;2023-04-09T03:16:00;11.65;72.11
78315;SHT31;68596;52.080;4.662;2023-04-09T03:18:44;11.68;71.73
78315;SHT31;68596;52.080;4.662;2023-04-09T03:21:28;11.72;71.59
78315;SHT31;68596;52.080;4.662;2023-04-09T03:24:12;11.76;71.53
78315;SHT31;68596;52.080;4.662;2023-04-09T03:26:56;11.76;71.59
78315;SHT31;68596;52.080;4.662;2023-04-09T03:29:40;11.79;71.52
78315;SHT31;68596;52.080;4.662;2023-04-09T03:32:25;11.82;71.56
78315;SHT31;68596;52.080;4.662;2023-04-09T03:35:09;11.82;71.56
78315;SHT31;68596;52.080;4.662;2023-04-09T03:37:53;11.82;71.38
78315;SHT31;68596;52.080;4.662;2023-04-09T03:40:37;11.85;71.36
78315;SHT31;68596;52.080;4.662;2023-04-09T03:43:21;11.85;71.13
78315;SHT31;68596;52.080;4.662;2023-04-09T03:46:13;11.83;71.51
78315;SHT31;68596;52.080;4.662;2023-04-09T03:48:57;11.85;71.67
78315;SHT31;68596;52.080;4.662;2023-04-09T03:51:41;11.85;71.80
78315;SHT31;68596;52.080;4.662;2023-04-09T03:54:29;11.88;71.70
78315;SHT31;68596;52.080;4.662;2023-04-09T03:57:13;11.88;71.51
78315;SHT31;68596;52.080;4.662;2023-04-09T03:59:57;11.89;71.50
78315;SHT31;68596;52.080;4.662;2023-04-09T04:02:41;11.92;71.54
78315;SHT31;68596;52.080;4.662;2023-04-09T04:05:25;11.89;71.29
78315;SHT31;68596;52.080;4.662;2023-04-09T04:08:09;11.90;71.38
78315;SHT31;68596;52.080;4.662;2023-04-09T04:10:54;11.93;71.27
78315;SHT31;68596;52.080;4.662;2023-04-09T04:13:38;11.95;71.53
78315;SHT31;68596;52.080;4.662;2023-04-09T04:16:25;11.93;71.23
78315;SHT31;68596;52.080;4.662;2023-04-09T04:19:09;11.93;70.99
78315;SHT31;68596;52.080;4.662;2023-04-09T04:21:54;11.95;71.26
78315;SHT31;68596;52.080;4.662;2023-04-09T04:24:38;11.96;71.05
78315;SHT31;68596;52.080;4.662;2023-04-09T04:27:22;11.95;71.00
78315;SHT31;68596;52.080;4.662;2023-04-09T04:30:07;11.99;70.86
78315;SHT31;68596;52.080;4.662;2023-04-09T04:32:52;11.96;70.92
78315;SHT31;68596;52.080;4.662;2023-04-09T04:35:36;11.99;70.95
78315;SHT31;68596;52.080;4.662;2023-04-09T04:38:23;12.00;70.85
78315;SHT31;68596;52.080;4.662;2023-04-09T04:41:07;12.00;70.94
78315;SHT31;68596;52.080;4.662;2023-04-09T04:43:51;11.99;71.04
78315;SHT31;68596;52.080;4.662;2023-04-09T04:46:35;12.00;70.93
78315;SHT31;68596;52.080;4.662;2023-04-09T04:49:19;12.02;71.04
78315;SHT31;68596;52.080;4.662;2023-04-09T04:52:03;12.02;71.06
78315;SHT31;68596;52.080;4.662;2023-04-09T04:54:47;12.00;71.16
78315;SHT31;68596;52.080;4.662;2023-04-09T04:57:35;12.00;71.03
78315;SHT31;68596;52.080;4.662;2023-04-09T05:00:19;12.02;71.16
78315;SHT31;68596;52.080;4.662;2023-04-09T05:03:03;12.03;70.99
78315;SHT31;68596;52.080;4.662;2023-04-09T05:05:47;12.03;70.81
78315;SHT31;68596;52.080;4.662;2023-04-09T05:08:31;12.03;70.88
78315;SHT31;68596;52.080;4.662;2023-04-09T05:11:15;12.02;71.02
78315;SHT31;68596;52.080;4.662;2023-04-09T05:13:59;12.02;71.05
78315;SHT31;68596;52.080;4.662;2023-04-09T05:16:44;12.02;70.99
78315;SHT31;68596;52.080;4.662;2023-04-09T05:19:28;12.00;70.98
78315;SHT31;68596;52.080;4.662;2023-04-09T05:22:12;12.02;71.27
78315;SHT31;68596;52.080;4.662;2023-04-09T05:24:57;12.02;71.36
78315;SHT31;68596;52.080;4.662;2023-04-09T05:27:41;12.02;71.36
78315;SHT31;68596;52.080;4.662;2023-04-09T05:30:25;11.99;71.73
78315;SHT31;68596;52.080;4.662;2023-04-09T05:33:10;12.00;71.22
78315;SHT31;68596;52.080;4.662;2023-04-09T05:35:54;11.99;71.19
78315;SHT31;68596;52.080;4.662;2023-04-09T05:38:38;12.02;70.80
78315;SHT31;68596;52.080;4.662;2023-04-09T05:41:22;12.05;70.71
78315;SHT31;68596;52.080;4.662;2023-04-09T05:44:06;12.02;70.78
78315;SHT31;68596;52.080;4.662;2023-04-09T05:46:50;12.03;70.85
78315;SHT31;68596;52.080;4.662;2023-04-09T05:49:37;12.03;70.71
78315;SHT31;68596;52.080;4.662;2023-04-09T05:52:22;12.08;70.76
78315;SHT31;68596;52.080;4.662;2023-04-09T05:55:06;12.06;70.79
78315;SHT31;68596;52.080;4.662;2023-04-09T05:57:52;12.09;70.95
78315;SHT31;68596;52.080;4.662;2023-04-09T06:00:36;12.09;70.84
78315;SHT31;68596;52.080;4.662;2023-04-09T06:03:21;12.09;70.61
78315;SHT31;68596;52.080;4.662;2023-04-09T06:06:04;12.12;70.67
78315;SHT31;68596;52.080;4.662;2023-04-09T06:08:49;12.09;71.08
78315;SHT31;68596;52.080;4.662;2023-04-09T06:11:33;12.08;71.16
78315;SHT31;68596;52.080;4.662;2023-04-09T06:14:17;12.09;71.06
78315;SHT31;68596;52.080;4.662;2023-04-09T06:17:02;12.09;71.17
78315;SHT31;68596;52.080;4.662;2023-04-09T06:19:47;12.08;71.17
78315;SHT31;68596;52.080;4.662;2023-04-09T06:22:31;12.09;71.26
78315;SHT31;68596;52.080;4.662;2023-04-09T06:25:15;12.10;71.31
78315;SHT31;68596;52.080;4.662;2023-04-09T06:28:00;12.09;71.00
78315;SHT31;68596;52.080;4.662;2023-04-09T06:30:44;12.13;70.84
78315;SHT31;68596;52.080;4.662;2023-04-09T06:33:30;12.13;70.73
78315;SHT31;68596;52.080;4.662;2023-04-09T06:36:14;12.13;70.96
78315;SHT31;68596;52.080;4.662;2023-04-09T06:38:58;12.13;70.83
78315;SHT31;68596;52.080;4.662;2023-04-09T06:41:43;12.12;70.64
78315;SHT31;68596;52.080;4.662;2023-04-09T06:44:27;12.18;70.75
78315;SHT31;68596;52.080;4.662;2023-04-09T06:47:11;12.13;70.69
78315;SHT31;68596;52.080;4.662;2023-04-09T06:49:55;12.18;70.67
78315;SHT31;68596;52.080;4.662;2023-04-09T06:52:39;12.19;70.71
78315;SHT31;68596;52.080;4.662;2023-04-09T06:55:23;12.19;70.82
78315;SHT31;68596;52.080;4.662;2023-04-09T06:58:09;12.22;70.65
78315;SHT31;68596;52.080;4.662;2023-04-09T07:00:54;12.16;71.02
78315;SHT31;68596;52.080;4.662;2023-04-09T07:03:38;12.18;70.79
78315;SHT31;68596;52.080;4.662;2023-04-09T07:06:23;12.19;70.39
78315;SHT31;68596;52.080;4.662;2023-04-09T07:09:07;12.20;70.35
78315;SHT31;68596;52.080;4.662;2023-04-09T07:11:51;12.19;69.99
78315;SHT31;68596;52.080;4.662;2023-04-09T07:14:35;12.19;70.19
78315;SHT31;68596;52.080;4.662;2023-04-09T07:17:19;12.20;70.40
78315;SHT31;68596;52.080;4.662;2023-04-09T07:20:04;12.22;70.30
78315;SHT31;68596;52.080;4.662;2023-04-09T07:22:48;12.25;70.22
78315;SHT31;68596;52.080;4.662;2023-04-09T07:25:33;12.23;70.24
78315;SHT31;68596;52.080;4.662;2023-04-09T07:28:17;12.22;70.37
78315;SHT31;68596;52.080;4.662;2023-04-09T07:31:01;12.26;70.36
78315;SHT31;68596;52.080;4.662;2023-04-09T07:33:48;12.25;70.27
78315;SHT31;68596;52.080;4.662;2023-04-09T07:36:33;12.23;70.27
78315;SHT31;68596;52.080;4.662;2023-04-09T07:39:17;12.25;70.09
78315;SHT31;68596;52.080;4.662;2023-04-09T07:42:02;12.25;69.85
78315;SHT31;68596;52.080;4.662;2023-04-09T07:44:47;12.25;69.91
78315;SHT31;68596;52.080;4.662;2023-04-09T07:47:31;12.22;69.92
78315;SHT31;68596;52.080;4.662;2023-04-09T07:50:15;12.22;69.94
78315;SHT31;68596;52.080;4.662;2023-04-09T07:53:00;12.22;69.50
78315;SHT31;68596;52.080;4.662;2023-04-09T07:55:44;12.22;69.56
78315;SHT31;68596;52.080;4.662;2023-04-09T07:58:28;12.23;69.44
78315;SHT31;68596;52.080;4.662;2023-04-09T08:01:12;12.25;69.46
78315;SHT31;68596;52.080;4.662;2023-04-09T08:03:56;12.25;69.32
78315;SHT31;68596;52.080;4.662;2023-04-09T08:06:40;12.20;69.53
78315;SHT31;68596;52.080;4.662;2023-04-09T08:09:24;12.22;69.59
78315;SHT31;68596;52.080;4.662;2023-04-09T08:12:08;12.26;69.40
78315;SHT31;68596;52.080;4.662;2023-04-09T08:14:54;12.25;69.26
78315;SHT31;68596;52.080;4.662;2023-04-09T08:17:38;12.20;69.42
78315;SHT31;68596;52.080;4.662;2023-04-09T08:20:22;12.22;69.38
78315;SHT31;68596;52.080;4.662;2023-04-09T08:23:06;12.22;69.56
78315;SHT31;68596;52.080;4.662;2023-04-09T08:25:51;12.20;69.63
78315;SHT31;68596;52.080;4.662;2023-04-09T08:28:35;12.19;69.36
78315;SHT31;68596;52.080;4.662;2023-04-09T08:31:20;12.19;69.57
78315;SHT31;68596;52.080;4.662;2023-04-09T08:34:05;12.18;69.38
78315;SHT31;68596;52.080;4.662;2023-04-09T08:36:52;12.18;69.32
78315;SHT31;68596;52.080;4.662;2023-04-09T08:39:37;12.18;69.07
78315;SHT31;68596;52.080;4.662;2023-04-09T08:42:21;12.18;69.09
78315;SHT31;68596;52.080;4.662;2023-04-09T08:45:07;12.22;68.96
78315;SHT31;68596;52.080;4.662;2023-04-09T08:47:51;12.23;69.14
78315;SHT31;68596;52.080;4.662;2023-04-09T08:50:35;12.22;68.97
78315;SHT31;68596;52.080;4.662;2023-04-09T08:53:20;12.23;68.92
78315;SHT31;68596;52.080;4.662;2023-04-09T08:56:06;12.23;69.07
78315;SHT31;68596;52.080;4.662;2023-04-09T08:58:50;12.28;68.95
78315;SHT31;68596;52.080;4.662;2023-04-09T09:01:35;12.28;68.94
78315;SHT31;68596;52.080;4.662;2023-04-09T09:04:19;12.28;68.71
78315;SHT31;68596;52.080;4.662;2023-04-09T09:07:05;12.28;68.60
78315;SHT31;68596;52.080;4.662;2023-04-09T09:12:40;12.22;68.91
78315;SHT31;68596;52.080;4.662;2023-04-09T09:15:28;12.23;68.72
78315;SHT31;68596;52.080;4.662;2023-04-09T09:18:12;12.22;68.59
78315;SHT31;68596;52.080;4.662;2023-04-09T09:21:14;12.23;68.38
78315;SHT31;68596;52.080;4.662;2023-04-09T09:23:58;12.25;68.41
78315;SHT31;68596;52.080;4.662;2023-04-09T09:26:42;12.28;68.32
78315;SHT31;68596;52.080;4.662;2023-04-09T09:29:27;12.25;68.48
78315;SHT31;68596;52.080;4.662;2023-04-09T09:32:12;12.28;68.34
78315;SHT31;68596;52.080;4.662;2023-04-09T09:35:04;12.28;67.97
78315;SHT31;68596;52.080;4.662;2023-04-09T09:38:00;12.28;68.20
78315;SHT31;68596;52.080;4.662;2023-04-09T09:40:45;12.32;67.99
78315;SHT31;68596;52.080;4.662;2023-04-09T09:43:39;12.30;68.02
78315;SHT31;68596;52.080;4.662;2023-04-09T09:46:27;12.30;67.90
78315;SHT31;68596;52.080;4.662;2023-04-09T09:49:14;12.32;67.98
78315;SHT31;68596;52.080;4.662;2023-04-09T09:51:59;12.33;67.88
78315;SHT31;68596;52.080;4.662;2023-04-09T09:54:48;12.34;67.82
78315;SHT31;68596;52.080;4.662;2023-04-09T09:57:38;12.37;67.81
78315;SHT31;68596;52.080;4.662;2023-04-09T10:00:26;12.40;67.84
78315;SHT31;68596;52.080;4.662;2023-04-09T10:03:26;12.44;68.03
78315;SHT31;68596;52.080;4.662;2023-04-09T10:06:12;12.47;67.94
78315;SHT31;68596;52.080;4.662;2023-04-09T10:09:02;12.47;67.86
78315;SHT31;68596;52.080;4.662;2023-04-09T10:11:48;12.50;67.82
78315;SHT31;68596;52.080;4.662;2023-04-09T10:14:33;12.56;68.12
78315;SHT31;68596;52.080;4.662;2023-04-09T10:17:19;12.57;67.69
78315;SHT31;68596;52.080;4.662;2023-04-09T10:20:14;12.59;67.33
78315;SHT31;68596;52.080;4.662;2023-04-09T10:23:08;12.63;67.80
78315;SHT31;68596;52.080;4.662;2023-04-09T10:25:54;12.70;68.17
78315;SHT31;68596;52.080;4.662;2023-04-09T10:28:39;12.76;66.83
78315;SHT31;68596;52.080;4.662;2023-04-09T10:31:23;12.81;67.01
78315;SHT31;68596;52.080;4.662;2023-04-09T10:34:08;12.87;67.28
78315;SHT31;68596;52.080;4.662;2023-04-09T10:36:55;12.88;67.14
78315;SHT31;68596;52.080;4.662;2023-04-09T10:39:43;12.97;67.24
78315;SHT31;68596;52.080;4.662;2023-04-09T10:42:31;12.97;66.91
78315;SHT31;68596;52.080;4.662;2023-04-09T10:45:19;12.95;67.00
78315;SHT31;68596;52.080;4.662;2023-04-09T10:48:03;13.00;67.28
78315;SHT31;68596;52.080;4.662;2023-04-09T10:50:49;13.05;67.57
78315;SHT31;68596;52.080;4.662;2023-04-09T10:53:34;13.08;67.12
78315;SHT31;68596;52.080;4.662;2023-04-09T10:56:19;13.12;67.28
78315;SHT31;68596;52.080;4.662;2023-04-09T10:59:03;13.21;66.88
78315;SHT31;68596;52.080;4.662;2023-04-09T11:01:53;13.25;66.99
78315;SHT31;68596;52.080;4.662;2023-04-09T11:10:43;13.46;66.50
78315;SHT31;68596;52.080;4.662;2023-04-09T11:13:29;13.52;67.28
78315;SHT31;68596;52.080;4.662;2023-04-09T11:16:14;13.66;66.50
78315;SHT31;68596;52.080;4.662;2023-04-09T11:19:00;13.77;66.24
78315;SHT31;68596;52.080;4.662;2023-04-09T11:21:46;13.89;65.43
78315;SHT31;68596;52.080;4.662;2023-04-09T11:24:44;13.97;64.95
78315;SHT31;68596;52.080;4.662;2023-04-09T11:27:29;14.06;66.09
78315;SHT31;68596;52.080;4.662;2023-04-09T11:30:13;14.18;65.75
78315;SHT31;68596;52.080;4.662;2023-04-09T11:32:58;14.27;65.23
78315;SHT31;68596;52.080;4.662;2023-04-09T11:35:42;14.38;66.35
78315;SHT31;68596;52.080;4.662;2023-04-09T11:38:26;14.48;64.45
78315;SHT31;68596;52.080;4.662;2023-04-09T11:41:14;14.57;64.71
78315;SHT31;68596;52.080;4.662;2023-04-09T11:44:01;14.57;65.47
78315;SHT31;68596;52.080;4.662;2023-04-09T11:46:47;14.60;64.36
78315;SHT31;68596;52.080;4.662;2023-04-09T11:49:33;14.65;64.73
78315;SHT31;68596;52.080;4.662;2023-04-09T11:52:18;14.69;64.14
78315;SHT31;68596;52.080;4.662;2023-04-09T11:55:04;14.72;64.07
78315;SHT31;68596;52.080;4.662;2023-04-09T11:57:51;14.68;64.53
78315;SHT31;68596;52.080;4.662;2023-04-09T12:00:39;14.65;64.59
78315;SHT31;68596;52.080;4.662;2023-04-09T12:03:31;14.65;64.79
78315;SHT31;68596;52.080;4.662;2023-04-09T12:06:19;14.64;64.34
78315;SHT31;68596;52.080;4.662;2023-04-09T12:09:07;14.68;64.83
78315;SHT31;68596;52.080;4.662;2023-04-09T12:11:52;14.69;65.48
78315;SHT31;68596;52.080;4.662;2023-04-09T12:14:36;14.74;64.70
78315;SHT31;68596;52.080;4.662;2023-04-09T12:17:20;14.75;64.49
78315;SHT31;68596;52.080;4.662;2023-04-09T12:20:05;14.82;64.38
78315;SHT31;68596;52.080;4.662;2023-04-09T12:22:52;14.85;64.61
78315;SHT31;68596;52.080;4.662;2023-04-09T12:25:40;14.89;64.26
78315;SHT31;68596;52.080;4.662;2023-04-09T12:28:24;14.91;64.10
78315;SHT31;68596;52.080;4.662;2023-04-09T12:31:09;14.93;63.81
78315;SHT31;68596;52.080;4.662;2023-04-09T12:33:53;14.95;63.50
78315;SHT31;68596;52.080;4.662;2023-04-09T12:36:39;14.99;63.55
78315;SHT31;68596;52.080;4.662;2023-04-09T12:39:24;14.99;63.39
78315;SHT31;68596;52.080;4.662;2023-04-09T12:42:09;14.99;63.56
78315;SHT31;68596;52.080;4.662;2023-04-09T12:44:53;15.03;62.87
78315;SHT31;68596;52.080;4.662;2023-04-09T12:47:37;14.99;63.25
78315;SHT31;68596;52.080;4.662;2023-04-09T12:50:23;15.01;63.17
78315;SHT31;68596;52.080;4.662;2023-04-09T12:53:07;14.96;63.29
78315;SHT31;68596;52.080;4.662;2023-04-09T12:55:52;15.01;63.71
78315;SHT31;68596;52.080;4.662;2023-04-09T12:58:36;15.05;63.80
78315;SHT31;68596;52.080;4.662;2023-04-09T13:01:21;15.09;63.71
78315;SHT31;68596;52.080;4.662;2023-04-09T13:04:05;15.11;63.31
78315;SHT31;68596;52.080;4.662;2023-04-09T13:06:49;15.16;62.61
78315;SHT31;68596;52.080;4.662;2023-04-09T13:09:33;15.19;61.06
78315;SHT31;68596;52.080;4.662;2023-04-09T13:12:19;15.26;62.13
78315;SHT31;68596;52.080;4.662;2023-04-09T13:15:04;15.29;61.02
78315;SHT31;68596;52.080;4.662;2023-04-09T13:17:49;15.32;62.25
78315;SHT31;68596;52.080;4.662;2023-04-09T13:20:33;15.35;62.29
78315;SHT31;68596;52.080;4.662;2023-04-09T13:23:17;15.33;62.74
78315;SHT31;68596;52.080;4.662;2023-04-09T13:26:01;15.40;61.81
78315;SHT31;68596;52.080;4.662;2023-04-09T13:28:46;15.47;59.67
78315;SHT31;68596;52.080;4.662;2023-04-09T13:31:30;15.53;60.74
78315;SHT31;68596;52.080;4.662;2023-04-09T13:34:14;15.57;62.01
78315;SHT31;68596;52.080;4.662;2023-04-09T13:36:58;15.59;61.35
78315;SHT31;68596;52.080;4.662;2023-04-09T13:39:43;15.57;61.44
78315;SHT31;68596;52.080;4.662;2023-04-09T13:42:27;15.56;61.45
78315;SHT31;68596;52.080;4.662;2023-04-09T13:45:11;15.52;61.63
78315;SHT31;68596;52.080;4.662;2023-04-09T13:47:55;15.49;61.91
78315;SHT31;68596;52.080;4.662;2023-04-09T13:50:39;15.47;61.88
78315;SHT31;68596;52.080;4.662;2023-04-09T13:53:23;15.49;62.28
78315;SHT31;68596;52.080;4.662;2023-04-09T13:56:08;15.50;62.35
78315;SHT31;68596;52.080;4.662;2023-04-09T13:58:52;15.52;62.09
78315;SHT31;68596;52.080;4.662;2023-04-09T14:01:36;15.53;60.86
78315;SHT31;68596;52.080;4.662;2023-04-09T14:04:20;15.57;60.91
78315;SHT31;68596;52.080;4.662;2023-04-09T14:07:05;15.60;60.05
78315;SHT31;68596;52.080;4.662;2023-04-09T14:09:50;15.66;60.34
78315;SHT31;68596;52.080;4.662;2023-04-09T14:12:34;15.66;60.49
78315;SHT31;68596;52.080;4.662;2023-04-09T14:15:19;15.66;60.41
78315;SHT31;68596;52.080;4.662;2023-04-09T14:18:03;15.69;60.07
78315;SHT31;68596;52.080;4.662;2023-04-09T14:20:47;15.69;60.53
78315;SHT31;68596;52.080;4.662;2023-04-09T14:23:31;15.67;60.04
78315;SHT31;68596;52.080;4.662;2023-04-09T14:26:15;15.70;60.58
78315;SHT31;68596;52.080;4.662;2023-04-09T14:28:59;15.73;59.43
78315;SHT31;68596;52.080;4.662;2023-04-09T14:31:44;15.77;60.09
78315;SHT31;68596;52.080;4.662;2023-04-09T14:34:29;15.79;59.52
78315;SHT31;68596;52.080;4.662;2023-04-09T14:37:14;15.77;58.95
78315;SHT31;68596;52.080;4.662;2023-04-09T14:39:59;15.73;59.24
78315;SHT31;68596;52.080;4.662;2023-04-09T14:42:44;15.73;59.14
78315;SHT31;68596;52.080;4.662;2023-04-09T14:45:28;15.70;59.20
78315;SHT31;68596;52.080;4.662;2023-04-09T14:48:12;15.70;59.32
78315;SHT31;68596;52.080;4.662;2023-04-09T14:50:56;15.70;57.86
78315;SHT31;68596;52.080;4.662;2023-04-09T14:53:41;15.73;58.56
78315;SHT31;68596;52.080;4.662;2023-04-09T14:56:26;15.76;58.44
78315;SHT31;68596;52.080;4.662;2023-04-09T14:59:10;15.74;58.67
78315;SHT31;68596;52.080;4.662;2023-04-09T15:01:54;15.73;58.93
78315;SHT31;68596;52.080;4.662;2023-04-09T15:04:38;15.73;58.41
78315;SHT31;68596;52.080;4.662;2023-04-09T15:07:22;15.73;58.38
78315;SHT31;68596;52.080;4.662;2023-04-09T15:10:07;15.74;58.27
78315;SHT31;68596;52.080;4.662;2023-04-09T15:12:51;15.74;57.62
78315;SHT31;68596;52.080;4.662;2023-04-09T15:15:35;15.71;57.90
78315;SHT31;68596;52.080;4.662;2023-04-09T15:18:19;15.79;57.62
78315;SHT31;68596;52.080;4.662;2023-04-09T15:21:04;15.84;57.39
78315;SHT31;68596;52.080;4.662;2023-04-09T15:23:53;15.89;57.57
78315;SHT31;68596;52.080;4.662;2023-04-09T15:26:37;15.87;57.20
78315;SHT31;68596;52.080;4.662;2023-04-09T15:29:21;15.89;57.52
78315;SHT31;68596;52.080;4.662;2023-04-09T15:32:06;15.86;57.20
78315;SHT31;68596;52.080;4.662;2023-04-09T15:34:50;15.89;56.52
78315;SHT31;68596;52.080;4.662;2023-04-09T15:37:34;15.93;55.56
78315;SHT31;68596;52.080;4.662;2023-04-09T15:40:21;15.94;57.34
78315;SHT31;68596;52.080;4.662;2023-04-09T15:43:05;15.96;57.73
78315;SHT31;68596;52.080;4.662;2023-04-09T15:45:49;15.97;57.25
78315;SHT31;68596;52.080;4.662;2023-04-09T15:48:34;15.97;56.65
78315;SHT31;68596;52.080;4.662;2023-04-09T15:51:19;15.97;57.60
78315;SHT31;68596;52.080;4.662;2023-04-09T15:54:04;15.96;57.13
78315;SHT31;68596;52.080;4.662;2023-04-09T15:56:48;15.94;56.52
78315;SHT31;68596;52.080;4.662;2023-04-09T15:59:32;15.94;56.62
78315;SHT31;68596;52.080;4.662;2023-04-09T16:02:17;15.94;57.10
78315;SHT31;68596;52.080;4.662;2023-04-09T16:05:01;15.93;56.87
78315;SHT31;68596;52.080;4.662;2023-04-09T16:07:49;15.93;56.71
78315;SHT31;68596;52.080;4.662;2023-04-09T16:10:34;15.94;56.72
78315;SHT31;68596;52.080;4.662;2023-04-09T16:13:19;15.93;56.57
78315;SHT31;68596;52.080;4.662;2023-04-09T16:16:04;15.93;57.08
78315;SHT31;68596;52.080;4.662;2023-04-09T16:18:49;15.94;57.20
78315;SHT31;68596;52.080;4.662;2023-04-09T16:21:34;15.96;56.91
78315;SHT31;68596;52.080;4.662;2023-04-09T16:24:18;15.94;57.26
78315;SHT31;68596;52.080;4.662;2023-04-09T16:27:02;15.94;56.61
78315;SHT31;68596;52.080;4.662;2023-04-09T16:29:47;15.97;56.72
78315;SHT31;68596;52.080;4.662;2023-04-09T16:32:31;15.96;56.78
78315;SHT31;68596;52.080;4.662;2023-04-09T16:35:16;15.94;56.96
78315;SHT31;68596;52.080;4.662;2023-04-09T16:38:00;15.98;56.19
78315;SHT31;68596;52.080;4.662;2023-04-09T16:40:44;15.97;56.71
78315;SHT31;68596;52.080;4.662;2023-04-09T16:43:28;15.96;57.09
78315;SHT31;68596;52.080;4.662;2023-04-09T16:46:13;15.94;56.57
78315;SHT31;68596;52.080;4.662;2023-04-09T16:48:57;15.96;55.40
78315;SHT31;68596;52.080;4.662;2023-04-09T16:51:41;15.94;55.64
78315;SHT31;68596;52.080;4.662;2023-04-09T16:54:25;15.93;55.73
78315;SHT31;68596;52.080;4.662;2023-04-09T16:57:08;15.91;56.03
78315;SHT31;68596;52.080;4.662;2023-04-09T16:59:53;15.89;55.31
78315;SHT31;68596;52.080;4.662;2023-04-09T17:02:37;15.87;55.59
78315;SHT31;68596;52.080;4.662;2023-04-09T17:05:22;15.87;55.78
78315;SHT31;68596;52.080;4.662;2023-04-09T17:08:06;15.90;54.65
78315;SHT31;68596;52.080;4.662;2023-04-09T17:10:50;15.89;56.17
78315;SHT31;68596;52.080;4.662;2023-04-09T17:13:35;15.91;56.45
78315;SHT31;68596;52.080;4.662;2023-04-09T17:16:19;15.87;55.99
78315;SHT31;68596;52.080;4.662;2023-04-09T17:19:03;15.90;56.75
78315;SHT31;68596;52.080;4.662;2023-04-09T17:21:48;15.89;55.80
78315;SHT31;68596;52.080;4.662;2023-04-09T17:24:32;15.87;55.99
78315;SHT31;68596;52.080;4.662;2023-04-09T17:27:19;15.89;55.47
78315;SHT31;68596;52.080;4.662;2023-04-09T17:30:04;15.87;56.25
78315;SHT31;68596;52.080;4.662;2023-04-09T17:32:49;15.86;56.23
78315;SHT31;68596;52.080;4.662;2023-04-09T17:35:33;15.86;56.25
78315;SHT31;68596;52.080;4.662;2023-04-09T17:38:18;15.82;56.64